createdAt,value
2022-09-18T00:01:10.847Z,100505.13
2022-09-18T00:03:38.918Z,100506.91
2022-09-18T00:06:09.186Z,100512.91
2022-09-18T00:08:38.513Z,100514.13
2022-09-18T00:11:07.689Z,100509.50
2022-09-18T00:13:37.796Z,100509.53
2022-09-18T00:16:06.211Z,100504.97
2022-09-18T00:18:34.348Z,100518.19
2022-09-18T00:21:05.304Z,100514.56
2022-09-18T00:23:33.179Z,100507.34
2022-09-18T00:26:00.879Z,100511.00
2022-09-18T00:28:29.147Z,100516.41
2022-09-18T00:31:04.726Z,100524.25
2022-09-18T00:33:32.932Z,100517.28
2022-09-18T00:36:05.220Z,100522.59
2022-09-18T00:38:33.171Z,100520.63
2022-09-18T00:41:02.199Z,100524.06
2022-09-18T00:43:32.372Z,100513.31
2022-09-18T00:46:04.233Z,100520.31
2022-09-18T00:48:40.386Z,100526.56
2022-09-18T00:51:08.321Z,100526.50
2022-09-18T00:53:38.007Z,100516.91
2022-09-18T00:56:08.246Z,100522.03
2022-09-18T00:58:36.763Z,100523.88
2022-09-18T01:01:07.420Z,100521.91
2022-09-18T01:03:35.956Z,100520.94
2022-09-18T01:06:12.349Z,100539.31
2022-09-18T01:08:49.913Z,100525.97
2022-09-18T01:11:32.025Z,100528.03
2022-09-18T01:14:11.162Z,100535.84
2022-09-18T01:16:50.868Z,100538.38
2022-09-18T01:19:42.705Z,100536.72
2022-09-18T01:22:23.543Z,100537.44
2022-09-18T01:25:06.557Z,100521.38
2022-09-18T01:27:40.350Z,100528.59
2022-09-18T01:30:12.288Z,100525.81
2022-09-18T01:32:44.763Z,100509.06
2022-09-18T01:35:40.060Z,100527.56
2022-09-18T01:38:12.500Z,100524.84
2022-09-18T01:40:45.179Z,100524.81
2022-09-18T01:43:17.210Z,100525.78
2022-09-18T01:45:49.457Z,100525.78
2022-09-18T01:48:27.583Z,100525.81
2022-09-18T01:51:01.283Z,100532.06
2022-09-18T01:53:33.866Z,100537.44
2022-09-18T01:56:07.244Z,100525.31
2022-09-18T01:58:36.398Z,100527.22
2022-09-18T02:01:13.150Z,100524.81
2022-09-18T02:03:45.543Z,100545.06
2022-09-18T02:06:20.112Z,100531.84
2022-09-18T02:08:51.658Z,100536.22
2022-09-18T02:11:23.666Z,100530.97
2022-09-18T02:13:55.840Z,100533.69
2022-09-18T02:16:37.635Z,100537.22
2022-09-18T02:19:08.967Z,100537.56
2022-09-18T02:21:38.064Z,100533.06
2022-09-18T02:24:10.005Z,100533.09
2022-09-18T02:26:41.848Z,100531.53
2022-09-18T02:29:12.652Z,100528.88
2022-09-18T02:31:42.346Z,100531.56
2022-09-18T02:34:12.496Z,100520.09
2022-09-18T02:36:54.942Z,100521.91
2022-09-18T02:39:36.153Z,100515.53
2022-09-18T02:42:17.053Z,100514.56
2022-09-18T02:44:53.642Z,100512.69
2022-09-18T02:47:36.721Z,100512.81
2022-09-18T02:50:12.987Z,100516.25
2022-09-18T02:52:46.690Z,100517.97
2022-09-18T02:55:18.386Z,100508.31
2022-09-18T02:57:50.350Z,100504.56
2022-09-18T03:00:18.847Z,100508.09
2022-09-18T03:02:51.737Z,100507.09
2022-09-18T03:05:36.483Z,100507.91
2022-09-18T03:08:04.225Z,100513.91
2022-09-18T03:10:32.867Z,100516.75
2022-09-18T03:13:01.251Z,100512.34
2022-09-18T03:15:29.181Z,100505.38
2022-09-18T03:17:59.443Z,100517.91
2022-09-18T03:20:27.350Z,100518.94
2022-09-18T03:22:55.175Z,100509.78
2022-09-18T03:25:23.143Z,100503.72
2022-09-18T03:27:55.053Z,100514.41
2022-09-18T03:30:30.283Z,100509.28
2022-09-18T03:32:59.432Z,100511.13
2022-09-18T03:35:28.381Z,100517.38
2022-09-18T03:37:56.288Z,100513.03
2022-09-18T03:40:27.098Z,100518.53
2022-09-18T03:42:56.260Z,100514.84
2022-09-18T03:45:26.347Z,100526.28
2022-09-18T03:47:55.220Z,100520.91
2022-09-18T03:50:26.640Z,100520.28
2022-09-18T03:52:54.456Z,100520.16
2022-09-18T03:55:46.826Z,100515.06
2022-09-18T03:58:32.933Z,100517.81
2022-09-18T04:01:14.841Z,100515.16
2022-09-18T04:04:14.982Z,100513.38
2022-09-18T04:06:46.921Z,100512.72
2022-09-18T04:09:50.210Z,100523.28
2022-09-18T04:12:18.117Z,100526.00
2022-09-18T04:14:50.959Z,100518.84
2022-09-18T04:17:19.371Z,100508.28
2022-09-18T04:19:51.354Z,100515.28
2022-09-18T04:22:22.682Z,100520.59
2022-09-18T04:24:51.308Z,100518.88
2022-09-18T04:27:19.038Z,100524.16
2022-09-18T04:29:49.909Z,100510.84
2022-09-18T04:32:19.384Z,100507.16
2022-09-18T04:34:47.725Z,100517.69
2022-09-18T04:37:15.636Z,100513.22
2022-09-18T04:39:46.962Z,100516.03
2022-09-18T04:42:15.563Z,100516.06
2022-09-18T04:44:45.753Z,100507.31
2022-09-18T04:47:13.876Z,100515.28
2022-09-18T04:49:41.584Z,100517.97
2022-09-18T04:52:09.654Z,100522.25
2022-09-18T04:54:37.991Z,100524.84
2022-09-18T04:57:07.560Z,100530.06
2022-09-18T04:59:36.773Z,100520.34
2022-09-18T05:02:06.577Z,100523.75
2022-09-18T05:04:36.059Z,100520.09
2022-09-18T05:07:11.557Z,100527.88
2022-09-18T05:09:39.951Z,100516.34
2022-09-18T05:12:10.955Z,100519.78
2022-09-18T05:14:40.886Z,100515.31
2022-09-18T05:17:11.268Z,100522.31
2022-09-18T05:19:42.116Z,100511.66
2022-09-18T05:22:22.310Z,100520.28
2022-09-18T05:24:52.324Z,100519.47
2022-09-18T05:27:26.142Z,100521.25
2022-09-18T05:29:55.418Z,100508.03
2022-09-18T05:32:34.564Z,100512.38
2022-09-18T05:35:02.266Z,100513.41
2022-09-18T05:37:29.983Z,100513.41
2022-09-18T05:39:57.816Z,100519.63
2022-09-18T05:42:26.843Z,100508.97
2022-09-18T05:44:57.572Z,100508.09
2022-09-18T05:47:28.373Z,100509.84
2022-09-18T05:49:56.074Z,100514.25
2022-09-18T05:52:25.399Z,100512.34
2022-09-18T05:54:54.004Z,100521.25
2022-09-18T05:57:22.113Z,100513.31
2022-09-18T05:59:52.501Z,100517.66
2022-09-18T06:02:20.530Z,100520.25
2022-09-18T06:05:02.750Z,100516.66
2022-09-18T06:07:30.504Z,100521.91
2022-09-18T06:09:59.148Z,100522.69
2022-09-18T06:12:28.088Z,100513.97
2022-09-18T06:14:57.166Z,100519.19
2022-09-18T06:17:25.981Z,100514.72
2022-09-18T06:19:56.610Z,100509.22
2022-09-18T06:22:25.719Z,100514.34
2022-09-18T06:24:54.333Z,100521.34
2022-09-18T06:27:29.600Z,100518.44
2022-09-18T06:29:58.933Z,100521.66
2022-09-18T06:32:31.485Z,100511.44
2022-09-18T06:34:59.212Z,100521.94
2022-09-18T06:37:27.565Z,100516.38
2022-09-18T06:40:07.897Z,100522.53
2022-09-18T06:42:57.494Z,100523.28
2022-09-18T06:45:54.100Z,100519.44
2022-09-18T06:48:24.628Z,100527.22
2022-09-18T06:50:53.694Z,100531.66
2022-09-18T06:53:23.717Z,100537.13
2022-09-18T06:56:00.280Z,100529.22
2022-09-18T06:58:28.224Z,100524.09
2022-09-18T07:01:00.753Z,100530.06
2022-09-18T07:03:34.947Z,100522.91
2022-09-18T07:06:17.947Z,100525.66
2022-09-18T07:08:48.800Z,100514.34
2022-09-18T07:11:27.622Z,100515.59
2022-09-18T07:13:55.430Z,100515.69
2022-09-18T07:16:24.712Z,100513.75
2022-09-18T07:18:53.841Z,100514.66
2022-09-18T07:21:22.010Z,100518.25
2022-09-18T07:23:49.779Z,100513.69
2022-09-18T07:26:19.052Z,100509.66
2022-09-18T07:28:48.319Z,100505.81
2022-09-18T07:31:21.040Z,100515.88
2022-09-18T07:33:53.509Z,100503.09
2022-09-18T07:36:23.839Z,100506.91
2022-09-18T07:38:52.518Z,100509.09
2022-09-18T07:41:21.591Z,100505.38
2022-09-18T07:43:51.205Z,100496.03
2022-09-18T07:46:19.726Z,100499.38
2022-09-18T07:48:50.131Z,100505.84
2022-09-18T07:51:26.459Z,100503.00
2022-09-18T07:53:56.119Z,100502.38
2022-09-18T07:56:46.585Z,100522.47
2022-09-18T07:59:17.472Z,100510.38
2022-09-18T08:01:47.228Z,100508.16
2022-09-18T08:04:15.653Z,100522.78
2022-09-18T08:07:20.020Z,100513.47
2022-09-18T08:10:11.953Z,100515.56
2022-09-18T08:12:54.833Z,100515.91
2022-09-18T08:15:33.168Z,100513.13
2022-09-18T08:18:14.020Z,100505.69
2022-09-18T08:21:07.338Z,100520.66
2022-09-18T08:23:44.686Z,100516.09
2022-09-18T08:26:12.454Z,100520.63
2022-09-18T08:28:40.271Z,100507.06
2022-09-18T08:31:08.270Z,100511.47
2022-09-18T08:33:36.095Z,100512.09
2022-09-18T08:36:04.314Z,100517.28
2022-09-18T08:38:35.282Z,100518.72
2022-09-18T08:41:58.774Z,100513.13
2022-09-18T08:44:29.927Z,100510.81
2022-09-18T08:47:06.767Z,100508.69
2022-09-18T08:49:39.079Z,100504.50
2022-09-18T08:52:15.123Z,100503.66
2022-09-18T08:54:51.413Z,100509.44
2022-09-18T08:57:44.446Z,100505.31
2022-09-18T09:00:20.528Z,100496.56
2022-09-18T09:03:11.767Z,100501.84
2022-09-18T09:05:47.607Z,100500.41
2022-09-18T09:08:29.954Z,100494.28
2022-09-18T09:11:11.031Z,100492.75
2022-09-18T09:13:57.905Z,100498.88
2022-09-18T09:16:35.570Z,100501.94
2022-09-18T09:19:14.410Z,100491.94
2022-09-18T09:21:52.399Z,100484.50
2022-09-18T09:24:32.464Z,100470.94
2022-09-18T09:27:19.425Z,100469.88
2022-09-18T09:30:17.460Z,100471.69
2022-09-18T09:33:13.269Z,100470.31
2022-09-18T09:36:05.581Z,100473.81
2022-09-18T09:38:49.783Z,100471.25
2022-09-18T09:41:25.549Z,100479.91
2022-09-18T09:44:01.807Z,100468.28
2022-09-18T09:46:48.323Z,100475.78
2022-09-18T09:49:21.169Z,100474.59
2022-09-18T09:51:58.068Z,100469.78
2022-09-18T09:54:26.332Z,100455.56
2022-09-18T09:57:03.985Z,100449.09
2022-09-18T09:59:42.140Z,100437.81
2022-09-18T10:02:33.763Z,100436.16
2022-09-18T10:05:11.216Z,100447.66
2022-09-18T10:07:47.620Z,100453.00
2022-09-18T10:10:23.030Z,100441.81
2022-09-18T10:12:54.726Z,100452.25
2022-09-18T10:15:33.843Z,100438.84
2022-09-18T10:18:07.440Z,100445.72
2022-09-18T10:20:37.660Z,100434.41
2022-09-18T10:23:13.375Z,100432.69
2022-09-18T10:25:47.607Z,100441.88
2022-09-18T10:28:17.036Z,100439.75
2022-09-18T10:30:55.108Z,100434.06
2022-09-18T10:33:39.954Z,100438.69
2022-09-18T10:36:21.324Z,100450.28
2022-09-18T10:38:50.267Z,100446.28
2022-09-18T10:41:34.991Z,100448.69
2022-09-18T10:44:17.169Z,100440.06
2022-09-18T10:46:53.648Z,100436.13
2022-09-18T10:49:26.107Z,100435.53
2022-09-18T10:52:21.065Z,100441.50
2022-09-18T10:55:00.558Z,100441.59
2022-09-18T10:57:31.402Z,100428.63
2022-09-18T11:00:03.945Z,100429.13
2022-09-18T11:02:40.524Z,100443.44
2022-09-18T11:05:18.915Z,100424.03
2022-09-18T11:07:49.817Z,100429.03
2022-09-18T11:10:19.562Z,100422.28
2022-09-18T11:12:54.895Z,100420.81
2022-09-18T11:15:33.748Z,100423.75
2022-09-18T11:18:04.925Z,100411.13
2022-09-18T11:20:43.166Z,100397.16
2022-09-18T11:23:17.577Z,100419.50
2022-09-18T11:25:47.092Z,100404.34
2022-09-18T11:28:28.468Z,100428.91
2022-09-18T11:31:01.512Z,100414.31
2022-09-18T11:33:37.165Z,100413.88
2022-09-18T11:36:10.075Z,100414.09
2022-09-18T11:38:41.806Z,100411.22
2022-09-18T11:41:10.988Z,100417.53
2022-09-18T11:43:45.054Z,100415.66
2022-09-18T11:46:23.531Z,100420.75
2022-09-18T11:49:01.291Z,100415.25
2022-09-18T11:51:41.298Z,100413.25
2022-09-18T11:54:14.359Z,100411.13
2022-09-18T11:56:47.601Z,100410.56
2022-09-18T11:59:25.822Z,100412.69
2022-09-18T12:01:57.908Z,100413.25
2022-09-18T12:04:36.762Z,100411.94
2022-09-18T12:07:16.036Z,100412.88
2022-09-18T12:09:53.845Z,100405.69
2022-09-18T12:12:29.544Z,100412.44
2022-09-18T12:15:04.425Z,100425.97
2022-09-18T12:17:41.161Z,100436.19
2022-09-18T12:20:16.479Z,100444.69
2022-09-18T12:22:49.316Z,100452.84
2022-09-18T12:25:18.523Z,100431.34
2022-09-18T12:28:22.142Z,100426.91
2022-09-18T12:30:58.609Z,100421.38
2022-09-18T12:33:37.497Z,100418.56
2022-09-18T12:36:37.397Z,100414.97
2022-09-18T12:39:29.126Z,100405.97
2022-09-18T12:42:08.019Z,100408.91
2022-09-18T12:44:55.565Z,100404.72
2022-09-18T12:47:35.196Z,100402.50
2022-09-18T12:50:24.641Z,100398.75
2022-09-18T12:53:09.958Z,100389.25
2022-09-18T12:55:56.577Z,100395.00
2022-09-18T12:59:03.280Z,100380.34
2022-09-18T13:01:35.160Z,100368.03
2022-09-18T13:04:09.733Z,100380.31
2022-09-18T13:06:43.561Z,100366.41
2022-09-18T13:09:22.763Z,100378.75
2022-09-18T13:11:58.613Z,100371.06
2022-09-18T13:14:29.818Z,100367.72
2022-09-18T13:17:06.366Z,100365.00
2022-09-18T13:19:38.990Z,100353.16
2022-09-18T13:22:12.023Z,100366.41
2022-09-18T13:24:42.372Z,100358.06
2022-09-18T13:27:14.642Z,100354.50
2022-09-18T13:29:58.883Z,100348.25
2022-09-18T13:32:39.292Z,100342.59
2022-09-18T13:35:20.505Z,100336.19
2022-09-18T13:37:49.421Z,100332.06
2022-09-18T13:40:33.163Z,100335.59
2022-09-18T13:43:16.560Z,100329.69
2022-09-18T13:45:44.370Z,100324.41
2022-09-18T13:48:21.455Z,100318.41
2022-09-18T13:50:53.617Z,100326.41
2022-09-18T13:53:33.398Z,100320.50
2022-09-18T13:56:01.499Z,100319.91
2022-09-18T13:58:55.969Z,100325.97
2022-09-18T14:01:59.618Z,100330.31
2022-09-18T14:04:59.176Z,100330.63
2022-09-18T14:07:54.457Z,100329.94
2022-09-18T14:10:25.956Z,100340.22
2022-09-18T14:13:40.168Z,100341.94
2022-09-18T14:16:29.803Z,100381.06
2022-09-18T14:19:03.307Z,100382.13
2022-09-18T14:21:33.178Z,100390.84
2022-09-18T14:24:07.523Z,100387.78
2022-09-18T14:26:57.800Z,100385.47
2022-09-18T14:29:29.846Z,100384.38
2022-09-18T14:32:01.237Z,100379.81
2022-09-18T14:34:37.557Z,100375.56
2022-09-18T14:37:24.408Z,100370.66
2022-09-18T14:39:54.008Z,100364.97
2022-09-18T14:42:32.583Z,100361.78
2022-09-18T14:45:09.921Z,100357.34
2022-09-18T14:47:39.717Z,100362.81
2022-09-18T14:50:24.133Z,100356.44
2022-09-18T14:52:52.084Z,100354.84
2022-09-18T14:55:22.679Z,100348.59
2022-09-18T14:57:53.275Z,100342.16
2022-09-18T15:00:25.392Z,100361.41
2022-09-18T15:02:58.305Z,100350.44
2022-09-18T15:05:28.832Z,100335.25
2022-09-18T15:08:01.981Z,100344.88
2022-09-18T15:10:30.618Z,100338.16
2022-09-18T15:12:59.550Z,100338.31
2022-09-18T15:15:34.086Z,100337.19
2022-09-18T15:18:04.144Z,100335.66
2022-09-18T15:20:34.883Z,100336.97
2022-09-18T15:23:18.610Z,100325.81
2022-09-18T15:25:49.860Z,100333.28
2022-09-18T15:28:20.670Z,100333.34
2022-09-18T15:30:49.190Z,100341.91
2022-09-18T15:33:21.149Z,100343.69
2022-09-18T15:35:53.352Z,100350.94
2022-09-18T15:38:24.077Z,100350.78
2022-09-18T15:40:53.381Z,100370.25
2022-09-18T15:43:50.286Z,100373.38
2022-09-18T15:46:27.128Z,100373.50
2022-09-18T15:48:59.425Z,100376.47
2022-09-18T15:51:31.770Z,100375.59
2022-09-18T15:54:09.604Z,100367.63
2022-09-18T15:56:40.535Z,100373.69
2022-09-18T15:59:20.312Z,100376.63
2022-09-18T16:01:49.389Z,100371.91
2022-09-18T16:04:21.205Z,100354.34
2022-09-18T16:06:56.810Z,100345.47
2022-09-18T16:09:33.816Z,100334.72
2022-09-18T16:12:35.997Z,100333.56
2022-09-18T16:15:22.987Z,100320.22
2022-09-18T16:18:04.413Z,100322.47
2022-09-18T16:20:36.832Z,100312.94
2022-09-18T16:23:19.658Z,100305.59
2022-09-18T16:26:03.815Z,100305.47
2022-09-18T16:28:34.035Z,100299.88
2022-09-18T16:31:01.945Z,100303.75
2022-09-18T16:33:31.874Z,100285.50
2022-09-18T16:36:05.730Z,100281.31
2022-09-18T16:38:33.485Z,100280.63
2022-09-18T16:41:01.470Z,100279.44
2022-09-18T16:43:29.972Z,100275.94
2022-09-18T16:45:57.773Z,100279.66
2022-09-18T16:48:25.971Z,100276.34
2022-09-18T16:50:53.825Z,100280.47
2022-09-18T16:53:23.136Z,100286.84
2022-09-18T16:55:54.480Z,100281.88
2022-09-18T16:58:23.572Z,100281.56
2022-09-18T17:00:51.965Z,100299.88
2022-09-18T17:03:20.553Z,100302.13
2022-09-18T17:05:48.389Z,100309.16
2022-09-18T17:08:16.158Z,100315.06
2022-09-18T17:10:45.502Z,100328.88
2022-09-18T17:13:13.802Z,100321.06
2022-09-18T17:15:41.580Z,100328.59
2022-09-18T17:18:09.599Z,100335.38
2022-09-18T17:20:37.716Z,100304.69
2022-09-18T17:23:05.528Z,100320.16
2022-09-18T17:25:33.722Z,100316.69
2022-09-18T17:28:03.168Z,100325.66
2022-09-18T17:30:31.008Z,100321.56
2022-09-18T17:32:59.104Z,100326.00
2022-09-18T17:35:27.672Z,100331.22
2022-09-18T17:37:55.520Z,100331.22
2022-09-18T17:40:23.393Z,100324.25
2022-09-18T17:42:51.229Z,100317.81
2022-09-18T17:45:20.472Z,100324.09
2022-09-18T17:47:51.911Z,100328.06
2022-09-18T17:50:20.498Z,100325.13
2022-09-18T17:52:48.425Z,100318.25
2022-09-18T17:55:16.576Z,100325.22
2022-09-18T17:57:44.611Z,100321.66
2022-09-18T18:00:13.166Z,100318.25
2022-09-18T18:02:45.207Z,100315.75
2022-09-18T18:05:13.228Z,100318.22
2022-09-18T18:07:41.146Z,100324.31
2022-09-18T18:10:10.071Z,100309.94
2022-09-18T18:12:37.870Z,100316.97
2022-09-18T18:15:06.762Z,100316.31
2022-09-18T18:17:35.944Z,100309.91
2022-09-18T18:20:06.058Z,100308.09
2022-09-18T18:22:36.191Z,100305.34
2022-09-18T18:25:06.031Z,100313.03
2022-09-18T18:27:34.181Z,100311.13
2022-09-18T18:30:02.251Z,100305.84
2022-09-18T18:32:30.100Z,100303.13
2022-09-18T18:34:57.946Z,100305.00
2022-09-18T18:37:27.334Z,100310.44
2022-09-18T18:39:55.308Z,100306.00
2022-09-18T18:42:23.298Z,100304.44
2022-09-18T18:44:51.056Z,100320.19
2022-09-18T18:47:20.418Z,100318.25
2022-09-18T18:49:48.412Z,100315.06
2022-09-18T18:52:16.855Z,100323.09
2022-09-18T18:54:46.058Z,100315.78
2022-09-18T18:57:14.085Z,100325.75
2022-09-18T18:59:43.533Z,100333.50
2022-09-18T19:02:12.082Z,100337.91
2022-09-18T19:04:41.460Z,100334.44
2022-09-18T19:07:09.599Z,100334.44
2022-09-18T19:09:37.567Z,100339.81
2022-09-18T19:12:06.961Z,100340.66
2022-09-18T19:14:37.917Z,100348.88
2022-09-18T19:17:05.767Z,100342.84
2022-09-18T19:19:33.675Z,100336.50
2022-09-18T19:22:01.719Z,100340.16
2022-09-18T19:24:30.061Z,100348.88
2022-09-18T19:26:58.854Z,100344.72
2022-09-18T19:29:30.518Z,100342.63
2022-09-18T19:31:58.567Z,100339.91
2022-09-18T19:34:27.091Z,100340.88
2022-09-18T19:36:54.909Z,100342.47
2022-09-18T19:39:24.733Z,100341.03
2022-09-18T19:41:58.037Z,100342.00
2022-09-18T19:44:32.771Z,100353.63
2022-09-18T19:47:03.360Z,100350.22
2022-09-18T19:49:40.050Z,100356.19
2022-09-18T19:52:17.916Z,100362.66
2022-09-18T19:54:45.821Z,100363.31
2022-09-18T19:57:14.016Z,100368.72
2022-09-18T19:59:43.376Z,100363.41
2022-09-18T20:02:14.150Z,100368.88
2022-09-18T20:04:42.232Z,100365.13
2022-09-18T20:07:10.769Z,100365.13
2022-09-18T20:09:40.292Z,100366.97
2022-09-18T20:12:08.959Z,100364.19
2022-09-18T20:14:36.905Z,100366.00
2022-09-18T20:17:06.262Z,100359.91
2022-09-18T20:19:34.497Z,100368.63
2022-09-18T20:22:02.963Z,100364.19
2022-09-18T20:24:33.324Z,100365.06
2022-09-18T20:27:02.002Z,100363.91
2022-09-18T20:29:30.437Z,100371.34
2022-09-18T20:31:58.624Z,100373.91
2022-09-18T20:34:27.753Z,100368.78
2022-09-18T20:36:55.618Z,100365.91
2022-09-18T20:39:23.733Z,100367.63
2022-09-18T20:41:51.757Z,100370.31
2022-09-18T20:44:19.899Z,100377.56
2022-09-18T20:46:50.248Z,100371.09
2022-09-18T20:49:18.305Z,100379.22
2022-09-18T20:51:47.476Z,100373.00
2022-09-18T20:54:16.072Z,100380.25
2022-09-18T20:56:44.604Z,100386.41
2022-09-18T20:59:15.265Z,100382.81
2022-09-18T21:01:44.054Z,100391.91
2022-09-18T21:04:17.073Z,100397.06
2022-09-18T21:06:49.485Z,100407.66
2022-09-18T21:09:20.529Z,100413.72
2022-09-18T21:11:51.417Z,100410.94
2022-09-18T21:14:20.675Z,100406.53
2022-09-18T21:16:48.898Z,100403.06
2022-09-18T21:19:19.792Z,100407.47
2022-09-18T21:21:49.707Z,100399.44
2022-09-18T21:24:18.187Z,100407.38
2022-09-18T21:26:47.895Z,100399.34
2022-09-18T21:29:18.023Z,100403.97
2022-09-18T21:31:47.210Z,100411.88
2022-09-18T21:34:19.296Z,100413.63
2022-09-18T21:36:47.043Z,100414.38
2022-09-18T21:39:16.342Z,100419.06
2022-09-18T21:41:46.464Z,100415.25
2022-09-18T21:44:15.923Z,100421.34
2022-09-18T21:46:45.825Z,100416.31
2022-09-18T21:49:16.081Z,100420.63
2022-09-18T21:51:44.792Z,100418.06
2022-09-18T21:54:17.646Z,100428.59
2022-09-18T21:56:46.315Z,100420.72
2022-09-18T21:59:14.234Z,100425.19
2022-09-18T22:01:43.506Z,100438.44
2022-09-18T22:04:12.350Z,100434.03
2022-09-18T22:06:42.307Z,100441.22
2022-09-18T22:09:12.156Z,100448.19
2022-09-18T22:11:42.601Z,100449.69
2022-09-18T22:14:13.035Z,100460.41
2022-09-18T22:16:42.959Z,100469.00
2022-09-18T22:19:10.919Z,100465.50
2022-09-18T22:21:40.346Z,100468.25
2022-09-18T22:24:10.088Z,100475.31
2022-09-18T22:26:39.798Z,100481.47
2022-09-18T22:29:14.249Z,100478.03
2022-09-18T22:31:42.115Z,100482.59
2022-09-18T22:34:09.962Z,100476.22
2022-09-18T22:36:37.747Z,100477.97
2022-09-18T22:39:05.517Z,100480.66
2022-09-18T22:41:33.305Z,100489.38
2022-09-18T22:44:01.072Z,100492.13
2022-09-18T22:46:30.215Z,100490.44
2022-09-18T22:48:58.592Z,100487.00
2022-09-18T22:51:28.109Z,100493.94
2022-09-18T22:53:57.251Z,100495.78
2022-09-18T22:56:26.759Z,100497.53
2022-09-18T22:58:55.883Z,100504.47
2022-09-18T23:01:25.799Z,100505.63
2022-09-18T23:03:56.736Z,100504.03
2022-09-18T23:06:26.611Z,100507.47
2022-09-18T23:08:56.047Z,100503.06
2022-09-18T23:11:25.740Z,100499.63
2022-09-18T23:13:55.639Z,100510.94
2022-09-18T23:16:27.543Z,100516.25
2022-09-18T23:18:58.987Z,100520.69
2022-09-18T23:21:28.657Z,100526.75
2022-09-18T23:23:57.461Z,100532.00
2022-09-18T23:26:27.751Z,100525.81
2022-09-18T23:28:58.105Z,100528.41
2022-09-18T23:31:28.122Z,100535.50
2022-09-18T23:33:59.159Z,100542.47
2022-09-18T23:36:28.950Z,100550.44
2022-09-18T23:38:58.170Z,100552.28
2022-09-18T23:41:27.278Z,100555.81
2022-09-18T23:43:58.382Z,100554.75
2022-09-18T23:46:26.126Z,100561.22
2022-09-18T23:48:55.722Z,100564.59
2022-09-18T23:51:26.344Z,100564.50
2022-09-18T23:53:56.734Z,100568.22
2022-09-18T23:56:25.223Z,100568.94
2022-09-18T23:58:55.099Z,100579.38
